TimeEDT,TemperatureF,Dew PointF,Humidity,Sea Level PressureIn,VisibilityMPH,Wind Direction,Wind SpeedMPH,Gust SpeedMPH,PrecipitationIn,Events,Conditions,WindDirDegrees,DateUTC
12:51 AM,52.0,51.1,97,30.31,9.0,East,8.1,-,N/A,,Partly Cloudy,80,2011-10-06 04:51:00
1:51 AM,52.0,50.0,93,30.31,10.0,East,6.9,-,N/A,,Scattered Clouds,100,2011-10-06 05:51:00
2:51 AM,51.1,48.9,92,30.32,10.0,East,6.9,-,N/A,,Scattered Clouds,100,2011-10-06 06:51:00
3:51 AM,51.1,48.9,92,30.32,10.0,East,9.2,-,N/A,,Scattered Clouds,100,2011-10-06 07:51:00
4:51 AM,50.0,48.0,93,30.33,10.0,East,9.2,-,N/A,,Clear,100,2011-10-06 08:51:00
5:51 AM,48.9,46.0,90,30.33,10.0,East,9.2,-,N/A,,Clear,100,2011-10-06 09:51:00
6:51 AM,48.0,45.0,89,30.35,10.0,ESE,8.1,-,N/A,,Clear,110,2011-10-06 10:51:00
7:51 AM,48.0,44.1,86,30.37,10.0,ESE,3.5,-,N/A,,Clear,110,2011-10-06 11:51:00
8:51 AM,50.0,45.0,83,30.38,10.0,ESE,5.8,-,N/A,,Clear,120,2011-10-06 12:51:00
9:51 AM,54.0,44.1,69,30.38,10.0,SE,3.5,-,N/A,,Clear,140,2011-10-06 13:51:00
10:51 AM,57.9,48.0,70,30.38,10.0,Variable,3.5,-,N/A,,Clear,0,2011-10-06 14:51:00
11:51 AM,63.0,50.0,63,30.37,10.0,Calm,Calm,-,N/A,,Clear,0,2011-10-06 15:51:00
12:51 PM,66.9,51.1,57,30.36,10.0,Calm,Calm,-,N/A,,Clear,0,2011-10-06 16:51:00
1:51 PM,69.8,51.8,53,30.34,10.0,Calm,Calm,-,N/A,,Clear,0,2011-10-06 17:51:00
2:51 PM,71.1,50.0,47,30.33,10.0,Calm,Calm,-,N/A,,Clear,0,2011-10-06 18:51:00
3:51 PM,73.0,52.0,48,30.31,10.0,NNW,4.6,-,N/A,,Clear,330,2011-10-06 19:51:00
4:51 PM,72.0,48.9,44,30.31,10.0,WNW,4.6,-,N/A,,Clear,300,2011-10-06 20:51:00
5:51 PM,71.1,50.0,47,30.31,10.0,NNW,3.5,-,N/A,,Clear,330,2011-10-06 21:51:00
6:51 PM,62.1,53.1,72,30.32,10.0,Calm,Calm,-,N/A,,Clear,0,2011-10-06 22:51:00
7:51 PM,55.0,52.0,89,30.33,10.0,East,3.5,-,N/A,,Clear,80,2011-10-06 23:51:00
8:51 PM,54.0,51.1,90,30.34,10.0,East,4.6,-,N/A,,Clear,80,2011-10-07 00:51:00
9:51 PM,52.0,50.0,93,30.35,10.0,East,4.6,-,N/A,,Clear,80,2011-10-07 01:51:00
10:51 PM,51.1,50.0,96,30.36,10.0,East,4.6,-,N/A,,Clear,80,2011-10-07 02:51:00
11:51 PM,50.0,48.9,96,30.36,10.0,East,6.9,-,N/A,,Clear,90,2011-10-07 03:51:00